Meteo Giornale » Osservazioni meteo Russia » Ulyanovsk
ore: 08:00 - Osservazioni Meteo Ulyanovsk
Lat. 54° 21' N Lon. 48° 23' E Alt. metri s.l.m.
18 °C
Sereno
Temp. 24 Ore
0 °C
21 °C
Nord-Ovest
10.8 Km/h
Dew point 15 °C
Umidità 82 %
Visibilità 10 Km
Il sole sorge alle ore 04:54
Il sole tramonta alle ore 18:38
| Data e Ora | Cielo e Fenomeni | T °C | DP °C | Um. % | Pres. hPa | Vis. km | Vento km/h | |
|---|---|---|---|---|---|---|---|---|
| Oggi h: 08:00 | Sereno | 18 | 15 | 82 | 1018 | 10 | NO 10.8 | |
| Oggi h: 07:00 | Sereno | 16 | 14 | 87 | 1018 | 10 | O 10.8 | |
| Oggi h: 06:00 | Sereno | 13 | 13 | 100 | 1018 | 10 | O 10.8 | |
| Oggi h: 05:26 | Sereno | 13 | 13 | 100 | 1018 | 10 | O 14.4 | |
| Oggi h: 05:00 | Sereno | 13 | 13 | 100 | 1018 | 10 | O 14.4 | |
| Oggi h: 04:00 | Sereno | 14 | 12 | 87 | 1018 | 10 | N 7.2 | |
| Oggi h: 03:00 | Sereno | 14 | 12 | 87 | 1018 | 10 | N 7.2 | |
| Oggi h: 02:00 | Sereno | 15 | 12 | 82 | 1018 | 10 | N 3.6 | |
| Oggi h: 01:00 | Sereno | 15 | 12 | 82 | 1018 | 10 | N 7.2 | |
| Oggi h: 00:00 | Sereno | 16 | 13 | 82 | 1018 | 10 | S 10.8 | |
| Ieri h: 23:00 | Sereno | 15 | 12 | 82 | 1018 | 10 | S 10.8 | |
| Ieri h: 22:00 | Sereno | 16 | 12 | 77 | 1019 | 10 | N 7.2 | |
| Ieri h: 21:00 | Sereno | 16 | 12 | 77 | 1019 | 10 | SE 10.8 | |
| Ieri h: 20:00 | Sereno | 16 | 12 | 77 | 1019 | 10 | N 7.2 | |
| Ieri h: 19:00 | Sereno | 18 | 11 | 63 | 1020 | 10 | O/SO 14.4 | |
| Ieri h: 18:00 | Sereno | 18 | 10 | 59 | 1020 | 10 | SO 10.8 | |
| Ieri h: 17:00 | Sereno | 20 | 8 | 45 | 1020 | 10 | SO 14.4 | |
| Ieri h: 16:00 | Sereno | 20 | 11 | 56 | 1020 | 10 | N 7.2 | |
| Ieri h: 15:00 | Sereno | 21 | 11 | 52 | 1021 | 10 | O 10.8 | |
| Ieri h: 14:00 | Sereno | 21 | 10 | 49 | 1021 | 10 | O/SO 14.4 | |
| Ieri h: 13:00 | Sereno | 20 | 11 | 56 | 1021 | 10 | O/SO 14.4 | |
| Ieri h: 12:00 | Sereno | 21 | 11 | 52 | 1021 | 10 | O 10.8 | |
| Ieri h: 11:00 | Sereno | 20 | 12 | 59 | 1022 | 10 | O/SO 10.8 | |
| Ieri h: 10:00 | Sereno | 19 | 11 | 59 | 1022 | 10 | O 14.4 | |
| Ieri h: 09:00 | Sereno | 0 | 0 | 60 | 0 | 10 | N 0 | |



